Time;durP1;ratioP1;P1;durP2;ratioP2;P2;SDS_P1;SDS_P2;PMS_P1;PMS_P2;Temp;Humidity;BMP_temperature;BMP_pressure;BME280_temperature;BME280_humidity;BME280_pressure;Samples;Min_cycle;Max_cycle;Signal;HPM_P1;HPM_P2
2021/03/26 00:01:11;;;;;;;38.90;21.07;;;;;;;1.39;77.84;99603.78;1709540;83;21684;-54
2021/03/26 00:03:40;;;;;;;31.37;18.75;;;;;;;1.38;78.07;99604.75;1724628;83;20993;-54
2021/03/26 00:06:12;;;;;;;34.67;19.62;;;;;;;1.34;78.27;99615.06;1724733;82;22175;-55
2021/03/26 00:08:40;;;;;;;33.33;18.67;;;;;;;1.32;78.50;99605.17;1715117;83;21674;-55
2021/03/26 00:11:09;;;;;;;33.23;19.32;;;;;;;1.33;78.67;99605.05;1709905;83;21128;-55
2021/03/26 00:13:37;;;;;;;29.87;19.62;;;;;;;1.31;78.65;99602.17;1724438;83;21124;-55
2021/03/26 00:16:07;;;;;;;37.78;21.48;;;;;;;1.28;78.69;99609.78;1724542;83;21140;-55
2021/03/26 00:18:36;;;;;;;31.07;19.65;;;;;;;1.20;78.76;99606.40;1720012;83;21219;-55
2021/03/26 00:21:05;;;;;;;30.35;20.05;;;;;;;1.14;79.06;99616.02;1724508;83;21140;-55
2021/03/26 00:23:33;;;;;;;35.25;18.55;;;;;;;1.11;79.37;99615.39;1720771;82;21579;-55
2021/03/26 00:26:01;;;;;;;34.58;20.32;;;;;;;1.08;79.53;99612.52;1704819;83;21195;-55
2021/03/26 00:28:31;;;;;;;34.18;20.27;;;;;;;1.04;79.68;99615.47;1714564;83;21064;-55
2021/03/26 00:30:58;;;;;;;31.40;19.65;;;;;;;0.92;79.76;99611.06;1723283;83;21200;-54
2021/03/26 00:33:26;;;;;;;33.00;18.92;;;;;;;0.84;80.09;99618.61;1724523;83;21132;-55
2021/03/26 00:35:54;;;;;;;35.10;20.35;;;;;;;0.75;80.56;99614.86;1724560;83;20978;-54
2021/03/26 00:38:23;;;;;;;33.15;19.65;;;;;;;0.69;80.82;99613.96;1679260;83;21661;-54
2021/03/26 00:40:51;;;;;;;35.85;19.95;;;;;;;0.67;81.17;99611.08;1684348;83;21148;-55
2021/03/26 00:43:18;;;;;;;31.90;19.73;;;;;;;0.63;81.52;99607.83;1718498;83;21602;-55
2021/03/26 00:45:46;;;;;;;37.05;20.48;;;;;;;0.60;81.80;99608.88;1719038;83;21621;-55
2021/03/26 00:48:14;;;;;;;37.73;20.10;;;;;;;0.59;82.10;99615.54;1713784;83;21148;-55
2021/03/26 00:50:47;;;;;;;35.50;20.85;;;;;;;0.59;82.33;99614.23;1709748;83;21160;-55
2021/03/26 00:53:19;;;;;;;41.65;21.97;;;;;;;0.57;82.39;99612.19;1679034;83;21574;-55
2021/03/26 00:55:48;;;;;;;35.63;20.25;;;;;;;0.56;82.46;99616.59;1719356;83;22086;-55
2021/03/26 00:58:18;;;;;;;31.05;17.23;;;;;;;0.57;82.53;99615.62;1712136;83;21126;-54
2021/03/26 01:00:46;;;;;;;36.95;19.80;;;;;;;0.54;82.49;99617.63;1707199;83;21064;-54
2021/03/26 01:03:18;;;;;;;35.05;20.10;;;;;;;0.49;82.50;99619.27;1713945;82;21377;-54
2021/03/26 01:05:51;;;;;;;38.92;21.55;;;;;;;0.39;82.42;99615.56;1719505;83;21505;-55
2021/03/26 01:08:20;;;;;;;34.43;19.27;;;;;;;0.29;82.62;99622.36;1698321;82;21215;-55
2021/03/26 01:10:55;;;;;;;35.23;21.05;;;;;;;0.26;82.86;99617.81;1693491;83;21057;-55
2021/03/26 01:13:25;;;;;;;41.92;22.55;;;;;;;0.23;83.33;99614.09;1714125;83;20942;-56
2021/03/26 01:15:52;;;;;;;42.27;22.58;;;;;;;0.20;83.71;99615.59;1719335;83;21148;-54
2021/03/26 01:18:35;;;;;;;39.45;22.52;;;;;;;0.19;83.99;99620.45;1715295;83;21661;-55
2021/03/26 01:21:03;;;;;;;42.08;22.10;;;;;;;0.17;84.13;99622.34;1706468;83;21367;-55
2021/03/26 01:23:31;;;;;;;40.95;22.07;;;;;;;0.17;84.38;99620.56;1714398;83;21152;-55
2021/03/26 01:25:59;;;;;;;39.60;23.22;;;;;;;0.19;84.47;99614.75;1704475;83;21132;-55
2021/03/26 01:28:42;;;;;;;38.38;21.97;;;;;;;0.20;84.55;99619.52;1713225;82;21215;-55
2021/03/26 01:31:11;;;;;;;45.50;25.68;;;;;;;0.16;84.71;99615.45;1697052;82;21219;-56
2021/03/26 01:33:40;;;;;;;49.67;27.50;;;;;;;0.12;85.01;99613.95;1715223;83;21393;-56
2021/03/26 01:36:08;;;;;;;49.38;27.48;;;;;;;0.08;85.23;99612.50;1716197;83;21215;-56
2021/03/26 01:38:37;;;;;;;54.48;28.62;;;;;;;0.09;85.46;99616.77;1703395;83;21536;-56
2021/03/26 01:41:11;;;;;;;52.93;29.65;;;;;;;0.08;85.52;99611.19;1698895;83;21554;-55
2021/03/26 01:43:41;;;;;;;49.08;28.27;;;;;;;0.11;85.75;99607.88;1741878;81;21138;-55
2021/03/26 01:46:11;;;;;;;63.28;31.82;;;;;;;0.14;85.73;99605.53;1708319;83;22293;-54
2021/03/26 01:48:43;;;;;;;60.38;31.55;;;;;;;0.16;85.60;99607.59;1719009;82;21127;-55
2021/03/26 01:51:24;;;;;;;70.37;36.58;;;;;;;0.18;85.70;99609.64;1685540;83;21134;-54
2021/03/26 01:53:52;;;;;;;60.63;32.33;;;;;;;0.22;85.76;99605.86;1712135;83;21143;-54
2021/03/26 01:56:20;;;;;;;60.58;31.93;;;;;;;0.27;85.75;99616.86;1732845;82;21129;-55
2021/03/26 01:58:59;;;;;;;57.20;31.80;;;;;;;0.33;85.65;99611.22;1833190;76;27517;-55
2021/03/26 02:01:41;;;;;;;69.12;34.88;;;;;;;0.31;85.58;99616.58;1784461;77;21091;-55
2021/03/26 02:04:09;;;;;;;75.00;38.95;;;;;;;0.35;85.45;99616.72;1784855;79;22716;-55
2021/03/26 02:06:46;;;;;;;84.22;39.90;;;;;;;0.37;85.09;99616.14;1785542;78;20989;-55
2021/03/26 02:09:18;;;;;;;92.35;44.75;;;;;;;0.37;85.24;99615.30;1802709;78;20993;-56
2021/03/26 02:11:58;;;;;;;92.97;46.45;;;;;;;0.38;85.62;99618.30;1806947;77;20912;-56
2021/03/26 02:14:41;;;;;;;83.92;43.42;;;;;;;0.38;85.64;99620.45;1812529;77;21010;-56
2021/03/26 02:17:12;;;;;;;85.22;42.33;;;;;;;0.40;85.72;99624.25;1714251;80;21380;-56
2021/03/26 02:19:59;;;;;;;83.33;42.25;;;;;;;0.47;85.70;99617.69;1839916;76;27961;-54
2021/03/26 02:22:29;;;;;;;81.10;40.52;;;;;;;0.46;85.68;99625.16;1779357;78;20969;-56
2021/03/26 02:24:58;;;;;;;73.70;37.90;;;;;;;0.46;85.44;99626.01;1803104;78;21561;-55
2021/03/26 02:27:35;;;;;;;70.57;35.17;;;;;;;0.46;85.00;99627.78;1808367;78;21013;-55
2021/03/26 02:30:19;;;;;;;69.25;36.08;;;;;;;0.41;84.38;99619.40;1798837;77;21017;-55
2021/03/26 02:32:48;;;;;;;66.55;33.95;;;;;;;0.34;84.42;99624.69;1793085;77;21001;-54
2021/03/26 02:35:35;;;;;;;52.65;27.22;;;;;;;0.34;84.54;99622.08;1797765;77;21033;-55
2021/03/26 02:38:25;;;;;;;64.85;33.02;;;;;;;0.32;84.40;99627.39;1802349;77;21212;-55
2021/03/26 02:41:33;;;;;;;43.33;23.22;;;;;;;0.30;84.34;99621.89;1814307;78;21021;-55
2021/03/26 02:44:15;;;;;;;54.13;26.65;;;;;;;0.32;84.29;99626.55;1784797;77;20977;-54
2021/03/26 02:47:00;;;;;;;50.88;26.52;;;;;;;0.29;83.46;99622.82;1818453;78;26800;-55
2021/03/26 02:49:47;;;;;;;58.05;30.82;;;;;;;0.18;83.45;99620.95;1736072;80;20934;-55
2021/03/26 02:52:55;;;;;;;51.67;27.97;;;;;;;0.12;83.79;99621.80;1718259;82;21394;-56
2021/03/26 02:55:53;;;;;;;52.20;26.12;;;;;;;0.04;84.23;99628.86;1746092;82;21385;-55
2021/03/26 02:58:27;;;;;;;64.75;32.63;;;;;;;-0.02;84.49;99628.78;1705251;82;21036;-56
2021/03/26 03:01:13;;;;;;;56.23;30.62;;;;;;;0.00;85.02;99630.01;1750649;80;20963;-56
2021/03/26 03:03:40;;;;;;;70.17;34.67;;;;;;;0.05;85.40;99627.08;1737290;82;20934;-55
2021/03/26 03:06:23;;;;;;;67.90;33.73;;;;;;;0.05;85.81;99631.84;1732129;82;21381;-55
2021/03/26 03:09:05;;;;;;;68.72;33.25;;;;;;;0.07;86.23;99632.58;1644205;85;21033;-55
2021/03/26 03:11:41;;;;;;;69.82;35.80;;;;;;;0.08;86.81;99629.50;1675029;84;21128;-55
2021/03/26 03:14:29;;;;;;;70.90;34.95;;;;;;;0.09;87.22;99633.77;1700426;83;20986;-55
2021/03/26 03:17:11;;;;;;;;;;;;;;;0.12;87.38;99637.04;1727605;80;21257;-55
2021/03/26 03:19:57;;;;;;;53.02;29.10;;;;;;;0.18;87.50;99641.03;1709595;82;21377;-55
2021/03/26 03:22:52;;;;;;;53.17;30.15;;;;;;;0.23;87.52;99637.64;1716846;82;21116;-56
2021/03/26 03:25:23;;;;;;;63.85;33.63;;;;;;;0.26;87.35;99634.83;1712693;82;21132;-55
2021/03/26 03:28:32;;;;;;;57.90;31.02;;;;;;;0.28;87.21;99636.86;1725172;82;21152;-54
2021/03/26 03:31:14;;;;;;;58.65;29.95;;;;;;;0.34;87.31;99639.08;1730026;82;21061;-56
2021/03/26 03:34:05;;;;;;;61.10;30.88;;;;;;;0.42;87.20;99642.00;1706407;82;21236;-56
2021/03/26 03:37:10;;;;;;;57.90;31.20;;;;;;;0.42;86.98;99648.54;1714473;82;21146;-57
2021/03/26 03:40:08;;;;;;;58.42;31.52;;;;;;;0.47;87.09;99658.27;1713211;82;20954;-57
2021/03/26 03:42:45;;;;;;;58.35;31.23;;;;;;;0.51;86.99;99651.87;1720051;82;20996;-56
2021/03/26 03:45:44;;;;;;;63.60;35.17;;;;;;;0.55;86.95;99658.56;1836517;78;27185;-55
2021/03/26 03:48:40;;;;;;;51.88;28.42;;;;;;;0.50;86.86;99656.26;1801826;79;20926;-56
2021/03/26 03:51:21;;;;;;;48.25;26.93;;;;;;;0.52;86.93;99658.30;1809077;79;22221;-56
2021/03/26 03:54:11;;;;;;;59.30;29.55;;;;;;;0.52;86.48;99657.48;1776279;79;21087;-55
2021/03/26 03:56:52;;;;;;;57.73;30.08;;;;;;;0.49;86.42;99662.92;1784524;78;20918;-55
2021/03/26 03:59:38;;;;;;;51.65;27.20;;;;;;;0.43;86.44;99662.01;1777018;79;21077;-55
2021/03/26 04:02:23;;;;;;;69.27;35.60;;;;;;;0.41;86.49;99656.05;1782400;79;20994;-55
2021/03/26 04:05:14;;;;;;;65.42;32.83;;;;;;;0.37;86.73;99658.48;1780841;78;21377;-55
2021/03/26 04:08:02;;;;;;;60.25;32.28;;;;;;;0.37;87.02;99661.94;1805933;79;21009;-54
2021/03/26 04:10:32;;;;;;;54.73;29.77;;;;;;;0.39;86.94;99658.74;1774798;78;20926;-55
2021/03/26 04:13:14;;;;;;;63.83;33.55;;;;;;;0.42;86.93;99659.85;1746735;80;21487;-55
2021/03/26 04:15:59;;;;;;;64.92;34.30;;;;;;;0.44;86.83;99660.58;1777131;78;21107;-55
2021/03/26 04:18:45;;;;;;;67.75;35.95;;;;;;;0.45;86.78;99663.58;1778731;79;21385;-56
2021/03/26 04:21:24;;;;;;;65.10;34.15;;;;;;;0.49;86.88;99665.07;1804618;78;26463;-56
2021/03/26 04:24:19;;;;;;;67.15;35.55;;;;;;;0.56;86.94;99659.78;1764883;79;21001;-56
2021/03/26 04:27:10;;;;;;;72.50;36.30;;;;;;;0.65;87.02;99668.80;1780187;79;20985;-55
2021/03/26 04:29:47;;;;;;;73.37;36.10;;;;;;;0.74;86.98;99668.63;1785149;79;21092;-55
2021/03/26 04:32:19;;;;;;;62.27;32.65;;;;;;;0.78;86.71;99668.81;1808148;78;21137;-55
2021/03/26 04:34:47;;;;;;;54.83;31.48;;;;;;;0.82;86.60;99672.88;1764697;80;21136;-54
2021/03/26 04:37:52;;;;;;;66.10;36.70;;;;;;;0.87;86.58;99664.23;1789873;78;20922;-55
2021/03/26 04:40:31;;;;;;;62.13;32.70;;;;;;;0.92;86.47;99677.39;1790144;79;21032;-56
2021/03/26 04:43:25;;;;;;;78.78;36.80;;;;;;;1.03;86.55;99674.03;1774071;78;21033;-55
2021/03/26 04:46:04;;;;;;;89.75;39.03;;;;;;;1.11;86.61;99678.28;1780293;79;21602;-55
2021/03/26 04:49:07;;;;;;;89.28;39.83;;;;;;;1.23;86.45;99676.11;1807653;77;21191;-55
2021/03/26 04:51:52;;;;;;;71.05;34.13;;;;;;;1.39;86.12;99683.73;1803519;76;28205;-56
2021/03/26 04:54:45;;;;;;;68.00;33.90;;;;;;;1.38;85.79;99682.92;1778582;79;20988;-54
2021/03/26 04:57:55;;;;;;;54.27;30.27;;;;;;;1.45;85.63;99680.69;1763478;79;21396;-55
2021/03/26 05:00:51;;;;;;;67.55;33.90;;;;;;;1.52;85.22;99695.03;1795414;79;21107;-56
2021/03/26 05:03:23;;;;;;;71.12;39.00;;;;;;;1.48;84.76;99693.12;1767710;79;21546;-56
2021/03/26 05:05:56;;;;;;;70.00;38.60;;;;;;;1.51;84.98;99691.57;1777349;79;21045;-56
2021/03/26 05:08:27;;;;;;;60.65;33.88;;;;;;;1.57;84.86;99695.55;1778594;79;21163;-55
2021/03/26 05:11:04;;;;;;;67.90;36.90;;;;;;;1.62;84.69;99697.37;1751503;79;21005;-55
2021/03/26 05:13:48;;;;;;;67.05;36.00;;;;;;;1.67;84.72;99694.78;1776885;78;20891;-56
2021/03/26 05:16:41;;;;;;;77.30;37.58;;;;;;;1.76;84.67;99697.23;1788968;79;21619;-57
2021/03/26 05:19:38;;;;;;;87.30;40.35;;;;;;;1.80;84.40;99696.05;1783520;79;20999;-56
2021/03/26 05:22:35;;;;;;;70.72;35.52;;;;;;;1.79;84.17;99693.93;1758254;79;21000;-55
2021/03/26 05:25:21;;;;;;;68.83;36.35;;;;;;;1.81;84.27;99696.43;1741883;80;21388;-55
2021/03/26 05:28:14;;;;;;;68.90;36.08;;;;;;;1.85;84.21;99701.84;1775282;79;21029;-55
2021/03/26 05:30:43;;;;;;;73.87;37.83;;;;;;;1.90;84.30;99704.97;1776861;79;21038;-54
2021/03/26 05:33:37;;;;;;;73.12;37.65;;;;;;;1.93;84.08;99703.91;1776545;79;21017;-56
2021/03/26 05:36:34;;;;;;;78.35;38.53;;;;;;;1.93;84.17;99699.48;1771385;78;21041;-55
2021/03/26 05:39:23;;;;;;;72.78;37.83;;;;;;;1.97;84.13;99706.20;1784934;79;21369;-55
2021/03/26 05:42:28;;;;;;;70.67;38.10;;;;;;;2.01;84.08;99710.26;1776993;79;20973;-57
2021/03/26 05:45:49;;;;;;;78.30;36.85;;;;;;;2.05;84.06;99707.80;1777076;79;21124;-55
2021/03/26 05:48:47;;;;;;;79.92;38.70;;;;;;;2.08;84.02;99708.89;1779231;79;20926;-55
2021/03/26 05:51:43;;;;;;;77.15;47.23;;;;;;;2.18;84.27;99708.58;1795841;76;38747;-54
2021/03/26 05:54:44;;;;;;;62.45;34.88;;;;;;;2.22;84.41;99711.80;1783798;79;21511;-56
2021/03/26 05:57:45;;;;;;;60.48;32.95;;;;;;;2.31;84.50;99714.61;1806304;78;21233;-55
2021/03/26 06:00:25;;;;;;;59.73;33.55;;;;;;;2.37;84.14;99715.95;1777147;79;21017;-55
2021/03/26 06:03:44;;;;;;;63.05;32.98;;;;;;;2.41;83.98;99723.95;1747963;80;20998;-55
2021/03/26 06:07:00;;;;;;;63.68;34.05;;;;;;;2.43;84.06;99715.00;1780415;79;20938;-54
2021/03/26 06:10:27;;;;;;;74.53;35.17;;;;;;;2.48;83.97;99718.13;1777126;78;20957;-55
2021/03/26 06:13:54;;;;;;;55.70;32.67;;;;;;;2.56;84.06;99716.71;1792623;79;21395;-55
2021/03/26 06:17:09;;;;;;;63.98;32.08;;;;;;;2.65;83.95;99723.92;1792004;79;20938;-55
2021/03/26 06:20:07;;;;;;;69.55;34.27;;;;;;;2.71;83.69;99726.91;1793346;78;21017;-56
2021/03/26 06:22:59;;;;;;;61.37;32.88;;;;;;;2.76;83.69;99726.59;1774835;79;21569;-55
2021/03/26 06:25:40;;;;;;;65.73;34.03;;;;;;;2.81;83.76;99732.33;1746699;79;21064;-55
2021/03/26 06:28:24;;;;;;;71.95;34.15;;;;;;;2.84;83.47;99732.92;1787092;78;21721;-56
2021/03/26 06:31:07;;;;;;;64.42;34.53;;;;;;;2.90;83.40;99737.72;1791137;78;21098;-55
2021/03/26 06:34:25;;;;;;;59.83;32.00;;;;;;;3.01;83.17;99736.91;1786471;79;21465;-55
2021/03/26 06:37:25;;;;;;;61.25;31.77;;;;;;;3.09;82.85;99736.70;1722777;82;21003;-56
2021/03/26 06:40:07;;;;;;;65.62;34.08;;;;;;;3.22;82.68;99736.59;1721128;82;20939;-55
2021/03/26 06:42:55;;;;;;;66.87;33.45;;;;;;;3.28;82.16;99731.34;1717120;82;21279;-56
2021/03/26 06:46:22;;;;;;;63.05;32.55;;;;;;;3.36;82.12;99738.17;1698757;82;21044;-56
2021/03/26 06:49:15;;;;;;;61.02;31.70;;;;;;;3.47;81.83;99737.68;1717587;82;21148;-56
2021/03/26 06:51:51;;;;;;;71.97;36.73;;;;;;;3.57;80.90;99741.77;1674617;82;21097;-56
2021/03/26 06:54:43;;;;;;;66.85;34.20;;;;;;;3.63;79.58;99746.05;1716943;82;21190;-57
2021/03/26 06:57:34;;;;;;;59.90;32.65;;;;;;;3.63;79.58;99746.05;1779755;79;21369;-55
2021/03/26 07:00:55;;;;;;;52.20;29.98;;;;;;;3.68;79.16;99744.38;1759844;79;21006;-56
2021/03/26 07:03:46;;;;;;;69.80;32.50;;;;;;;3.75;78.80;99749.03;1781918;79;21168;-55
2021/03/26 07:06:44;;;;;;;66.02;33.55;;;;;;;3.87;78.39;99752.97;1787596;79;21426;-55
2021/03/26 07:10:00;;;;;;;69.25;33.15;;;;;;;3.94;77.83;99747.09;1783048;79;21155;-55
2021/03/26 07:12:36;;;;;;;66.70;31.07;;;;;;;4.02;77.54;99746.01;1775952;79;21410;-56
2021/03/26 07:15:17;;;;;;;66.45;34.23;;;;;;;4.13;76.79;99746.00;1791692;79;20938;-56
2021/03/26 07:17:53;;;;;;;59.77;30.37;;;;;;;4.25;76.24;99743.67;1764156;79;21633;-57
2021/03/26 07:20:56;;;;;;;;;;;;;;;4.44;75.92;99748.30;1786694;78;21009;-58
2021/03/26 07:23:38;;;;;;;49.85;25.70;;;;;;;4.66;75.28;99747.38;1789887;78;20235;-57
2021/03/26 07:26:39;;;;;;;47.73;25.40;;;;;;;4.94;74.84;99740.16;1786022;78;21279;-57
2021/03/26 07:29:43;;;;;;;45.70;25.62;;;;;;;5.25;73.75;99750.28;1732258;82;21040;-55
2021/03/26 07:32:28;;;;;;;47.45;26.15;;;;;;;5.70;72.65;99744.19;1772424;79;20966;-58
2021/03/26 07:35:37;;;;;;;42.55;25.02;;;;;;;6.36;71.57;99742.23;1772483;79;20982;-59
2021/03/26 07:38:41;;;;;;;43.93;25.50;;;;;;;7.14;69.69;99743.42;1774053;79;21595;-57
2021/03/26 07:41:50;;;;;;;42.53;25.12;;;;;;;8.04;66.96;99744.95;1773265;79;21148;-57
2021/03/26 07:45:07;;;;;;;46.13;25.25;;;;;;;8.90;64.38;99747.03;1771689;79;20993;-58
2021/03/26 07:47:57;;;;;;;42.30;24.85;;;;;;;9.70;61.64;99739.26;1772199;79;21029;-57
2021/03/26 07:50:41;;;;;;;34.63;22.32;;;;;;;10.47;58.69;99731.95;1775169;78;21076;-57
2021/03/26 07:53:30;;;;;;;43.80;22.45;;;;;;;11.12;56.53;99734.14;1778000;79;21120;-61
2021/03/26 07:56:33;;;;;;;34.53;23.62;;;;;;;11.76;54.06;99733.70;1771848;81;20989;-57
2021/03/26 07:59:22;;;;;;;43.55;25.95;;;;;;;12.40;52.08;99731.26;1773479;79;21017;-56
2021/03/26 08:02:13;;;;;;;39.42;24.87;;;;;;;12.87;50.40;99729.27;1707578;82;21099;-57
2021/03/26 08:05:05;;;;;;;40.67;24.35;;;;;;;13.23;49.14;99731.33;1782235;79;21140;-56
2021/03/26 08:08:14;;;;;;;40.48;22.52;;;;;;;13.50;46.93;99734.22;1772014;79;21084;-56
2021/03/26 08:10:49;;;;;;;31.65;22.00;;;;;;;13.66;46.41;99729.73;1771377;79;21056;-56
2021/03/26 08:13:34;;;;;;;29.70;19.60;;;;;;;13.81;45.49;99731.90;1788747;79;21097;-58
2021/03/26 08:16:14;;;;;;;19.67;14.70;;;;;;;14.02;44.36;99734.66;1788208;79;20958;-56
2021/03/26 08:19:10;;;;;;;29.72;13.70;;;;;;;14.11;41.66;99738.88;1795589;79;21195;-58
2021/03/26 08:21:48;;;;;;;16.15;13.48;;;;;;;14.03;42.20;99735.80;1783861;79;21554;-57
2021/03/26 08:25:11;;;;;;;16.85;14.25;;;;;;;14.23;41.73;99732.05;1792719;79;22198;-58
2021/03/26 08:27:56;;;;;;;20.57;14.18;;;;;;;14.29;41.10;99733.95;1793704;79;21154;-62
2021/03/26 08:30:50;;;;;;;26.00;15.10;;;;;;;14.31;41.17;99741.81;1795966;79;21183;-59
2021/03/26 08:33:41;;;;;;;21.15;15.13;;;;;;;14.32;40.61;99736.79;1775195;79;21187;-58
2021/03/26 08:36:22;;;;;;;27.87;19.25;;;;;;;14.47;40.05;99733.06;1793151;79;21108;-58
2021/03/26 08:39:41;;;;;;;34.63;20.37;;;;;;;14.60;40.47;99734.55;1793179;79;21428;-59
2021/03/26 08:42:31;;;;;;;24.98;18.65;;;;;;;14.84;39.54;99730.16;1773884;79;20926;-57
2021/03/26 08:45:11;;;;;;;30.32;20.35;;;;;;;15.16;39.73;99736.02;1774173;79;21088;-58
2021/03/26 08:47:43;;;;;;;27.98;21.07;;;;;;;15.44;38.72;99739.02;1775208;79;21136;-57
2021/03/26 08:50:32;;;;;;;29.27;20.27;;;;;;;15.54;38.39;99732.54;1771896;79;20914;-57
2021/03/26 08:53:38;;;;;;;34.65;20.10;;;;;;;15.62;38.36;99736.38;1794237;79;21355;-59
2021/03/26 08:56:47;;;;;;;30.12;21.33;;;;;;;15.80;38.26;99735.39;1724471;82;21783;-59
2021/03/26 08:59:46;;;;;;;28.32;20.72;;;;;;;15.83;37.62;99741.67;1771331;79;21230;-58
2021/03/26 09:02:43;;;;;;;26.25;20.00;;;;;;;15.88;37.27;99740.56;1776156;79;20930;-56
2021/03/26 09:05:29;;;;;;;25.50;20.68;;;;;;;15.85;37.11;99743.13;1804083;78;21140;-55
2021/03/26 09:08:25;;;;;;;29.20;19.95;;;;;;;15.53;36.99;99734.38;1727367;82;21013;-57
2021/03/26 09:11:32;;;;;;;25.65;20.25;;;;;;;15.22;37.49;99744.63;1771896;79;20943;-58
2021/03/26 09:14:37;;;;;;;22.45;18.48;;;;;;;15.04;37.44;99744.27;1764112;79;21101;-59
2021/03/26 09:17:17;;;;;;;21.93;18.02;;;;;;;15.08;37.88;99746.36;1776384;79;21338;-58
2021/03/26 09:20:02;;;;;;;25.92;19.92;;;;;;;15.37;37.73;99747.54;1790467;79;21279;-57
2021/03/26 09:23:19;;;;;;;24.52;19.57;;;;;;;15.72;37.32;99739.56;1774729;79;21345;-55
2021/03/26 09:25:49;;;;;;;34.98;20.48;;;;;;;15.99;36.78;99732.80;1776381;79;21514;-58
2021/03/26 09:28:38;;;;;;;24.85;20.15;;;;;;;16.03;35.73;99740.75;1802923;79;21570;-57
2021/03/26 09:31:14;;;;;;;26.85;19.27;;;;;;;15.90;36.54;99735.86;1775548;79;21526;-56
2021/03/26 09:34:01;;;;;;;23.83;19.17;;;;;;;16.21;36.52;99740.75;1787729;79;21594;-57
2021/03/26 09:36:37;;;;;;;20.70;17.25;;;;;;;16.55;36.05;99742.05;1773794;79;21387;-58
2021/03/26 09:39:11;;;;;;;24.70;18.90;;;;;;;16.86;34.93;99740.98;1771893;79;21009;-59
2021/03/26 09:41:50;;;;;;;22.62;18.55;;;;;;;16.80;34.63;99743.13;1794207;79;21463;-59
2021/03/26 09:44:34;;;;;;;23.15;18.80;;;;;;;16.57;34.77;99746.19;1789152;79;20948;-57
2021/03/26 09:47:14;;;;;;;23.80;18.07;;;;;;;16.47;35.30;99743.53;1784911;79;20974;-59
2021/03/26 09:49:46;;;;;;;27.30;19.75;;;;;;;16.29;35.39;99747.29;1799508;79;21372;-57
2021/03/26 09:52:38;;;;;;;21.57;18.37;;;;;;;16.05;35.06;99746.77;1759525;78;21072;-59
2021/03/26 09:55:14;;;;;;;22.90;17.98;;;;;;;15.92;35.61;99745.36;1763806;79;20990;-58
2021/03/26 09:58:14;;;;;;;22.02;16.55;;;;;;;16.12;35.66;99744.11;1780931;78;21049;-58
2021/03/26 10:01:09;;;;;;;33.58;17.60;;;;;;;16.36;35.51;99744.11;1766644;79;20918;-57
2021/03/26 10:03:46;;;;;;;25.08;18.62;;;;;;;16.68;35.32;99746.11;1784585;79;21124;-57
2021/03/26 10:06:34;;;;;;;23.25;17.50;;;;;;;16.87;34.63;99743.95;1771032;78;21012;-56
2021/03/26 10:09:31;;;;;;;24.10;18.92;;;;;;;16.72;34.72;99743.83;1746394;81;20891;-57
2021/03/26 10:12:21;;;;;;;20.88;17.73;;;;;;;16.62;34.12;99738.85;1737984;82;21069;-55
2021/03/26 10:14:57;;;;;;;20.75;18.48;;;;;;;16.42;34.84;99738.78;1794868;78;21586;-57
2021/03/26 10:18:01;;;;;;;27.90;18.65;;;;;;;16.54;34.85;99735.84;1774244;78;21151;-57
2021/03/26 10:20:35;;;;;;;24.30;17.35;;;;;;;16.55;34.61;99728.62;1796998;79;21049;-58
2021/03/26 10:23:53;;;;;;;25.05;17.50;;;;;;;16.59;34.86;99733.87;1772575;79;21113;-58
2021/03/26 10:26:40;;;;;;;25.30;18.60;;;;;;;16.82;34.99;99725.45;1780010;79;21006;-59
2021/03/26 10:29:40;;;;;;;22.93;17.62;;;;;;;17.04;33.98;99719.71;1767825;78;21100;-63
2021/03/26 10:32:24;;;;;;;23.85;17.73;;;;;;;17.00;34.00;99719.79;1779680;79;21247;-61
2021/03/26 10:34:54;;;;;;;25.82;17.70;;;;;;;17.00;34.06;99723.82;1785575;78;21119;-59
2021/03/26 10:38:00;;;;;;;23.55;16.52;;;;;;;17.07;33.94;99721.99;1779240;78;21186;-61
2021/03/26 10:40:58;;;;;;;24.77;16.93;;;;;;;17.21;33.99;99720.11;1773572;78;21128;-58
2021/03/26 10:43:33;;;;;;;18.25;16.00;;;;;;;17.26;33.64;99709.05;1765236;79;21192;-60
2021/03/26 10:46:14;;;;;;;20.62;15.43;;;;;;;17.05;33.42;99718.66;1739522;79;21195;-58
2021/03/26 10:49:10;;;;;;;21.93;16.42;;;;;;;16.84;33.75;99716.15;1779351;79;21149;-57
2021/03/26 10:51:53;;;;;;;17.05;15.25;;;;;;;16.79;33.98;99719.17;1775798;79;21112;-59
2021/03/26 10:54:34;;;;;;;22.30;15.80;;;;;;;16.42;34.30;99717.80;1785111;78;21154;-57
2021/03/26 10:57:22;;;;;;;21.55;15.70;;;;;;;16.24;34.95;99716.20;1716419;82;21179;-65
2021/03/26 10:59:55;;;;;;;19.32;14.83;;;;;;;16.24;34.65;99712.17;1722019;82;21203;-63
2021/03/26 11:03:03;;;;;;;15.98;14.07;;;;;;;16.03;34.89;99713.92;1742713;80;20996;-62
2021/03/26 11:05:56;;;;;;;17.73;14.00;;;;;;;15.88;34.80;99714.58;1753882;79;21091;-62
2021/03/26 11:08:46;;;;;;;18.00;14.10;;;;;;;15.57;35.34;99709.33;1683816;83;20993;-65
2021/03/26 11:11:31;;;;;;;15.18;12.60;;;;;;;15.59;35.81;99710.78;1703042;83;21138;-62
2021/03/26 11:14:36;;;;;;;20.48;12.60;;;;;;;15.57;35.84;99706.64;1713822;82;21084;-62
2021/03/26 11:17:25;;;;;;;19.35;14.18;;;;;;;15.61;35.81;99705.24;1709894;82;21191;-64
2021/03/26 11:20:33;;;;;;;18.82;13.58;;;;;;;15.65;35.86;99704.64;1722595;82;21124;-63
2021/03/26 11:23:06;;;;;;;18.10;13.22;;;;;;;15.75;35.99;99701.59;1718205;81;21033;-65
2021/03/26 11:25:44;;;;;;;18.23;13.40;;;;;;;15.92;35.42;99698.92;1722473;81;21149;-64
2021/03/26 11:28:29;;;;;;;13.80;12.30;;;;;;;15.87;35.29;99696.84;1719239;81;21383;-59
2021/03/26 11:31:36;;;;;;;15.58;13.58;;;;;;;15.82;34.86;99695.27;1745777;80;21209;-57
2021/03/26 11:34:31;;;;;;;14.30;12.85;;;;;;;15.77;35.12;99687.50;1746796;80;20955;-57
2021/03/26 11:37:19;;;;;;;19.75;14.15;;;;;;;15.75;34.88;99690.36;1757093;79;21220;-57
2021/03/26 11:40:07;;;;;;;13.45;11.70;;;;;;;15.70;34.91;99687.95;1740079;80;21125;-58
2021/03/26 11:42:48;;;;;;;15.85;13.03;;;;;;;15.61;35.14;99687.31;1745521;80;21365;-58
2021/03/26 11:45:27;;;;;;;16.60;11.85;;;;;;;15.35;35.12;99685.26;1753169;80;21197;-58
2021/03/26 11:48:09;;;;;;;18.12;12.85;;;;;;;15.23;35.58;99681.95;1749975;80;21126;-57
2021/03/26 11:50:46;;;;;;;14.15;12.40;;;;;;;15.11;36.02;99678.99;1750208;80;21134;-56
2021/03/26 11:53:31;;;;;;;18.00;13.48;;;;;;;15.11;36.25;99675.48;1745998;79;21571;-58
2021/03/26 11:56:20;;;;;;;18.85;14.03;;;;;;;15.07;36.34;99674.22;1755424;81;21344;-58
2021/03/26 11:59:10;;;;;;;14.78;13.00;;;;;;;15.09;36.10;99673.00;1745228;81;21010;-57
2021/03/26 12:02:17;;;;;;;17.15;14.28;;;;;;;15.08;35.85;99678.54;1742254;82;21621;-59
2021/03/26 12:04:51;;;;;;;;;;;;;;;15.02;35.77;99676.13;1744845;81;21143;-57
2021/03/26 12:07:26;;;;;;;15.88;12.93;;;;;;;14.97;36.11;99684.42;1765964;80;20325;-56
2021/03/26 12:10:05;;;;;;;21.65;13.30;;;;;;;14.87;36.28;99677.22;1748894;81;21109;-56
2021/03/26 12:12:37;;;;;;;16.73;12.58;;;;;;;14.60;35.88;99678.31;1742384;81;21219;-57
2021/03/26 12:15:14;;;;;;;14.33;11.85;;;;;;;14.29;36.51;99681.77;1742299;82;21129;-56
2021/03/26 12:18:36;;;;;;;16.40;13.72;;;;;;;14.17;36.64;99680.61;1719464;83;21120;-58
2021/03/26 12:21:13;;;;;;;18.23;12.55;;;;;;;14.07;36.76;99674.73;1726808;81;21175;-58
2021/03/26 12:23:48;;;;;;;13.90;11.25;;;;;;;13.95;37.09;99673.54;1742331;81;22301;-58
2021/03/26 12:26:42;;;;;;;20.17;13.08;;;;;;;13.88;37.54;99668.13;1742306;81;21060;-56
2021/03/26 12:29:20;;;;;;;15.68;13.18;;;;;;;13.85;37.90;99664.48;1724817;81;21129;-57
2021/03/26 12:32:02;;;;;;;15.53;13.50;;;;;;;13.71;38.13;99663.17;1724969;81;21210;-57
2021/03/26 12:34:47;;;;;;;14.13;11.97;;;;;;;13.43;38.21;99668.32;1754564;79;21137;-56
2021/03/26 12:37:19;;;;;;;21.17;12.90;;;;;;;13.11;38.64;99661.50;1758619;80;22223;-58
2021/03/26 12:39:51;;;;;;;13.50;12.07;;;;;;;12.92;39.22;99659.30;1745980;80;21120;-57
2021/03/26 12:42:24;;;;;;;15.68;12.95;;;;;;;12.93;39.39;99659.64;1739403;81;20993;-58
2021/03/26 12:44:57;;;;;;;15.70;12.43;;;;;;;12.92;39.34;99661.97;1753663;80;21139;-57
2021/03/26 12:47:41;;;;;;;15.18;12.47;;;;;;;12.91;39.29;99656.30;1737500;81;20954;-56